Weather at Hesselø Airstrip

Public forecast

Using degrees Celsius for public forecast. Weather courtesy of forecast.io.

Closest aviation weather report (METAR) to Hesselø Airstrip

Closest report is Aarhus Airport, 36.7 nm (67.9 km) W.

2024/05/30 08:50 (retrieved 36 minutes ago)

EKAH 300850Z AUTO 14007KT 070V190 9999 BKN017/// 19/12 Q1007

Closest aviation forecast (TAF) to Hesselø Airstrip

Closest forecast is Aarhus Airport, 36.7 nm (67.9 km) W.

2024/05/30 06:31 (retrieved 3 hours ago)

TAF EKAH 300508Z 3006/3106 14010KT 9999 SCT020 TEMPO 3006/3024 SCT020CB TEMPO 3100/3106 3000 RA BR BKN010 SCT020CB